Главная страница
METAR-TAF:

METAR-TAF

Аэропорты :

Дубай, Объединенные Арабские Эмираты

широта: 25-15-10N, долгота: 055-21-52E, высота над уровнем моря: 8 м

Текущие метеонаблюдения

Эта сводка был подготовлена 30 минут назад, в 01:00 UTC
Ветер 7 Узел от южный
Температура 30°C
Влажность 75%
Давление 999 hPa
Видимость: 8000 м

METAR: OMDB 240100Z 17007KT 8000 NSC 30/25 Q0999 NOSIG

Время: 05:30 (01:30 UTC)

Прогноз

Эта сводка был подготовлена 2 часа и 37 минут назад, в 22:53 UTC
Прогноз действительный с 24-го 00 UTC до 25-го 06 UTC
Ветер 5 Узел от южный-юго-западный
Видимость: 8000 м
изменения
С 24-го 05 UTC до 24-го 07 UTC
Ветер 12 Узел от западный
изменения
С 24-го 18 UTC до 24-го 20 UTC
Ветер 5 Узел от южный
изменения
С 25-го 05 UTC до 25-го 06 UTC
Ветер 10 Узел от западный

TAF: OMDB 232253Z 2400/2506 20005KT 8000 NSC BECMG 2405/2407 28012KT BECMG 2418/2420 18005KT BECMG 2505/2506 28010KT

Метеонаблюдения и прогнозы для более 4000 аэропортов (сводки METAR и TAF).

Имеющиеся станции представлены на карте желтыми и красными точками.

Чтобы увидеть название станции, наведите на нее мышь.

Затем щелкните, чтобы увидеть метеонаблюдения и метеопрогнозы.

Управление картой: чтобы увеличить масштаб, щелкните зеленые кнопки с черным крестиком; чтобы уменьшить масштаб, щелкните зеленую кнопку с тире; для просмотра соседних карт щелкайте зеленые стрелки.


METAR-TAF: